createdAt,value
2023-04-27T00:00:40.590Z,101663.50
2023-04-27T00:03:07.365Z,101681.41
2023-04-27T00:05:39.387Z,101670.94
2023-04-27T00:08:06.994Z,101668.31
2023-04-27T00:10:33.443Z,101670.75
2023-04-27T00:13:00.612Z,101673.47
2023-04-27T00:15:27.734Z,101672.66
2023-04-27T00:17:54.938Z,101658.06
2023-04-27T00:20:21.460Z,101676.25
2023-04-27T00:22:47.885Z,101665.75
2023-04-27T00:25:14.427Z,101658.22
2023-04-27T00:27:41.235Z,101672.38
2023-04-27T00:30:08.548Z,101659.25
2023-04-27T00:32:35.035Z,101622.13
2023-04-27T00:35:01.524Z,101639.19
2023-04-27T00:37:28.009Z,101657.44
2023-04-27T00:39:54.435Z,101655.06
2023-04-27T00:42:21.535Z,101664.09
2023-04-27T00:44:47.922Z,101647.50
2023-04-27T00:47:16.453Z,101673.03
2023-04-27T00:49:42.921Z,101659.13
2023-04-27T00:52:09.320Z,101669.38
2023-04-27T00:54:36.038Z,101678.78
2023-04-27T00:57:04.171Z,101673.47
2023-04-27T00:59:30.829Z,101681.22
2023-04-27T01:01:57.684Z,101674.00
2023-04-27T01:04:25.012Z,101671.59
2023-04-27T01:06:51.751Z,101687.97
2023-04-27T01:09:20.018Z,101670.00
2023-04-27T01:11:47.027Z,101682.00
2023-04-27T01:14:13.543Z,101646.09
2023-04-27T01:16:40.663Z,101686.44
2023-04-27T01:19:08.865Z,101672.50
2023-04-27T01:21:35.745Z,101691.72
2023-04-27T01:24:04.736Z,101667.13
2023-04-27T01:26:31.562Z,101698.94
2023-04-27T01:28:58.120Z,101699.06
2023-04-27T01:31:24.661Z,101687.25
2023-04-27T01:33:51.473Z,101694.78
2023-04-27T01:36:17.907Z,101685.53
2023-04-27T01:38:44.620Z,101700.06
2023-04-27T01:41:11.178Z,101687.94
2023-04-27T01:43:37.851Z,101702.63
2023-04-27T01:46:08.773Z,101701.88
2023-04-27T01:48:36.068Z,101702.72
2023-04-27T01:51:03.629Z,101705.19
2023-04-27T01:53:30.682Z,101729.00
2023-04-27T01:55:57.658Z,101725.50
2023-04-27T01:58:24.074Z,101731.28
2023-04-27T02:00:50.638Z,101725.06
2023-04-27T02:03:17.185Z,101728.91
2023-04-27T02:05:43.886Z,101737.38
2023-04-27T02:08:10.468Z,101740.56
2023-04-27T02:10:36.990Z,101742.78
2023-04-27T02:13:03.660Z,101734.59
2023-04-27T02:15:30.326Z,101734.16
2023-04-27T02:17:57.368Z,101739.13
2023-04-27T02:20:23.955Z,101695.88
2023-04-27T02:22:50.367Z,101733.31
2023-04-27T02:25:16.968Z,101730.34
2023-04-27T02:27:43.603Z,101728.28
2023-04-27T02:30:11.845Z,101722.16
2023-04-27T02:32:58.812Z,101733.06
2023-04-27T02:35:25.367Z,101711.44
2023-04-27T02:37:51.985Z,101720.59
2023-04-27T02:40:18.429Z,101739.44
2023-04-27T02:42:44.832Z,101713.69
2023-04-27T02:45:11.591Z,101739.28
2023-04-27T02:47:38.174Z,101708.63
2023-04-27T02:50:05.152Z,101729.09
2023-04-27T02:52:31.585Z,101705.50
2023-04-27T02:54:58.029Z,101737.41
2023-04-27T02:57:24.489Z,101723.34
2023-04-27T02:59:51.102Z,101741.53
2023-04-27T03:02:17.711Z,101705.84
2023-04-27T03:04:44.372Z,101737.09
2023-04-27T03:07:12.346Z,101732.06
2023-04-27T03:09:38.913Z,101736.97
2023-04-27T03:12:05.687Z,101741.75
2023-04-27T03:14:32.208Z,101711.97
2023-04-27T03:16:58.688Z,101733.13
2023-04-27T03:19:25.181Z,101737.78
2023-04-27T03:21:51.700Z,101735.81
2023-04-27T03:24:18.173Z,101736.16
2023-04-27T03:26:44.611Z,101743.31
2023-04-27T03:29:11.053Z,101717.91
2023-04-27T03:31:37.534Z,101693.63
2023-04-27T03:34:04.024Z,101679.59
2023-04-27T03:36:32.067Z,101729.56
2023-04-27T03:38:58.771Z,101704.34
2023-04-27T03:41:25.604Z,101695.94
2023-04-27T03:43:53.520Z,101749.31
2023-04-27T03:46:28.429Z,101751.97
2023-04-27T03:48:54.940Z,101744.81
2023-04-27T03:51:21.446Z,101740.47
2023-04-27T03:53:47.907Z,101713.06
2023-04-27T03:56:14.492Z,101738.75
2023-04-27T03:58:40.883Z,101750.97
2023-04-27T04:01:10.143Z,101729.50
2023-04-27T04:03:37.391Z,101750.03
2023-04-27T04:06:03.994Z,101747.22
2023-04-27T04:08:30.725Z,101745.34
2023-04-27T04:10:57.231Z,101746.13
2023-04-27T04:13:23.822Z,101751.09
2023-04-27T04:15:50.315Z,101745.91
2023-04-27T04:18:16.743Z,101754.44
2023-04-27T04:20:43.278Z,101731.28
2023-04-27T04:23:09.684Z,101755.19
2023-04-27T04:25:36.304Z,101762.72
2023-04-27T04:28:02.962Z,101731.28
2023-04-27T04:30:29.591Z,101764.22
2023-04-27T04:32:56.122Z,101770.88
2023-04-27T04:35:22.550Z,101749.38
2023-04-27T04:37:49.107Z,101766.13
2023-04-27T04:40:15.621Z,101741.88
2023-04-27T04:42:42.099Z,101758.47
2023-04-27T04:45:08.929Z,101778.03
2023-04-27T04:47:35.505Z,101785.63
2023-04-27T04:50:02.454Z,101786.13
2023-04-27T04:52:29.067Z,101774.63
2023-04-27T04:54:55.559Z,101784.72
2023-04-27T04:57:22.230Z,101766.59
2023-04-27T04:59:48.815Z,101779.31
2023-04-27T05:02:15.438Z,101774.13
2023-04-27T05:04:41.964Z,101791.28
2023-04-27T05:07:08.637Z,101790.34
2023-04-27T05:09:35.309Z,101764.91
2023-04-27T05:12:02.400Z,101790.97
2023-04-27T05:14:29.106Z,101791.22
2023-04-27T05:16:55.785Z,101785.56
2023-04-27T05:19:22.278Z,101792.22
2023-04-27T05:21:48.706Z,101793.09
2023-04-27T05:24:15.381Z,101772.94
2023-04-27T05:26:43.339Z,101785.56
2023-04-27T05:29:09.756Z,101795.72
2023-04-27T05:31:36.252Z,101730.94
2023-04-27T05:34:02.839Z,101786.22
2023-04-27T05:36:29.319Z,101787.31
2023-04-27T05:38:56.084Z,101791.13
2023-04-27T05:41:23.748Z,101791.59
2023-04-27T05:43:50.296Z,101783.97
2023-04-27T05:46:16.863Z,101786.06
2023-04-27T05:48:43.399Z,101794.41
2023-04-27T05:51:10.006Z,101791.16
2023-04-27T05:53:36.521Z,101768.88
2023-04-27T05:56:04.432Z,101800.75
2023-04-27T05:58:31.273Z,101757.53
2023-04-27T06:00:57.805Z,101793.16
2023-04-27T06:03:24.584Z,101800.78
2023-04-27T06:05:59.030Z,101803.44
2023-04-27T06:08:26.311Z,101810.16
2023-04-27T06:10:53.311Z,101805.31
2023-04-27T06:13:20.713Z,101800.16
2023-04-27T06:15:47.729Z,101757.38
2023-04-27T06:18:14.512Z,101806.97
2023-04-27T06:20:41.973Z,101808.22
2023-04-27T06:23:08.490Z,101786.13
2023-04-27T06:25:37.406Z,101793.53
2023-04-27T06:28:03.909Z,101823.72
2023-04-27T06:30:30.572Z,101838.25
2023-04-27T06:32:57.042Z,101813.50
2023-04-27T06:35:23.603Z,101819.63
2023-04-27T06:37:50.203Z,101771.59
2023-04-27T06:40:16.884Z,101763.25
2023-04-27T06:42:43.456Z,101806.97
2023-04-27T06:45:10.665Z,101807.63
2023-04-27T06:47:37.116Z,101754.72
2023-04-27T06:50:04.211Z,101801.56
2023-04-27T06:52:33.145Z,101799.31
2023-04-27T06:54:59.737Z,101776.88
2023-04-27T06:57:26.853Z,101806.31
2023-04-27T06:59:53.397Z,101785.25
2023-04-27T07:02:19.916Z,101828.69
2023-04-27T07:04:46.800Z,101817.34
2023-04-27T07:07:13.378Z,101801.78
2023-04-27T07:09:39.883Z,101824.09
2023-04-27T07:12:06.578Z,101830.22
2023-04-27T07:14:33.800Z,101821.38
2023-04-27T07:17:00.297Z,101850.66
2023-04-27T07:19:26.734Z,101841.66
2023-04-27T07:21:53.173Z,101843.50
2023-04-27T07:24:20.381Z,101847.09
2023-04-27T07:26:46.788Z,101853.47
2023-04-27T07:29:26.533Z,101852.13
2023-04-27T07:31:55.752Z,101854.97
2023-04-27T07:34:22.752Z,101848.41
2023-04-27T07:36:49.310Z,101836.78
2023-04-27T07:39:15.878Z,101833.03
2023-04-27T07:41:42.880Z,101854.19
2023-04-27T07:44:09.284Z,101847.41
2023-04-27T07:46:35.750Z,101842.69
2023-04-27T07:49:02.500Z,101815.47
2023-04-27T07:51:29.333Z,101858.47
2023-04-27T07:53:56.386Z,101839.78
2023-04-27T07:56:22.893Z,101857.75
2023-04-27T07:58:49.417Z,101838.19
2023-04-27T08:01:16.937Z,101849.94
2023-04-27T08:03:44.630Z,101846.78
2023-04-27T08:06:12.158Z,101862.47
2023-04-27T08:08:38.881Z,101831.69
2023-04-27T08:11:09.199Z,101846.13
2023-04-27T08:13:36.163Z,101843.97
2023-04-27T08:16:02.734Z,101805.88
2023-04-27T08:18:29.168Z,101844.44
2023-04-27T08:20:55.714Z,101823.81
2023-04-27T08:23:22.110Z,101817.47
2023-04-27T08:25:48.737Z,101840.47
2023-04-27T08:28:15.426Z,101838.25
2023-04-27T08:30:42.732Z,101838.78
2023-04-27T08:33:09.259Z,101835.31
2023-04-27T08:35:36.131Z,101806.78
2023-04-27T08:38:02.562Z,101842.03
2023-04-27T08:40:29.470Z,101828.75
2023-04-27T08:42:58.262Z,101817.53
2023-04-27T08:45:26.301Z,101837.47
2023-04-27T08:47:52.807Z,101840.66
2023-04-27T08:50:19.610Z,101830.53
2023-04-27T08:52:46.868Z,101822.25
2023-04-27T08:55:15.844Z,101830.72
2023-04-27T08:57:54.209Z,101798.66
2023-04-27T09:00:21.066Z,101812.56
2023-04-27T09:02:48.675Z,101823.88
2023-04-27T09:05:17.157Z,101801.91
2023-04-27T09:07:55.325Z,101816.53
2023-04-27T09:10:23.185Z,101801.00
2023-04-27T09:13:03.910Z,101807.66
2023-04-27T09:15:40.900Z,101826.50
2023-04-27T09:18:12.365Z,101820.31
2023-04-27T09:20:46.815Z,101817.72
2023-04-27T09:23:46.495Z,101830.09
2023-04-27T09:26:23.307Z,101818.41
2023-04-27T09:28:52.488Z,101784.56
2023-04-27T09:31:20.631Z,101818.31
2023-04-27T09:33:55.487Z,101829.97
2023-04-27T09:36:22.600Z,101831.16
2023-04-27T09:38:51.430Z,101813.19
2023-04-27T09:41:18.838Z,101811.91
2023-04-27T09:43:46.249Z,101823.63
2023-04-27T09:46:14.308Z,101818.41
2023-04-27T09:48:41.386Z,101812.75
2023-04-27T09:51:08.167Z,101751.97
2023-04-27T09:54:00.385Z,101814.69
2023-04-27T09:56:46.530Z,101810.78
2023-04-27T09:59:31.601Z,101815.03
2023-04-27T10:02:09.925Z,101812.59
2023-04-27T10:04:57.946Z,101808.66
2023-04-27T10:07:27.535Z,101809.22
2023-04-27T10:09:53.966Z,101806.75
2023-04-27T10:12:28.406Z,101811.91
2023-04-27T10:14:59.575Z,101808.38
2023-04-27T10:17:31.588Z,101810.47
2023-04-27T10:20:03.034Z,101816.56
2023-04-27T10:22:50.145Z,101781.63
2023-04-27T10:25:18.915Z,101814.53
2023-04-27T10:27:59.853Z,101813.72
2023-04-27T10:30:32.454Z,101815.31
2023-04-27T10:33:04.159Z,101821.09
2023-04-27T10:35:34.658Z,101820.41
2023-04-27T10:38:15.272Z,101819.94
2023-04-27T10:40:45.318Z,101836.34
2023-04-27T10:43:16.274Z,101792.56
2023-04-27T10:45:43.961Z,101833.50
2023-04-27T10:48:16.539Z,101839.63
2023-04-27T10:50:44.814Z,101841.63
2023-04-27T10:53:11.583Z,101837.63
2023-04-27T10:55:38.106Z,101836.88
2023-04-27T10:58:04.781Z,101853.47
2023-04-27T11:00:36.231Z,101830.69
2023-04-27T11:03:12.145Z,101839.16
2023-04-27T11:05:38.758Z,101828.41
2023-04-27T11:08:10.440Z,101827.06
2023-04-27T11:10:47.344Z,101830.66
2023-04-27T11:13:16.048Z,101831.91
2023-04-27T11:15:46.649Z,101837.00
2023-04-27T11:18:13.489Z,101831.72
2023-04-27T11:20:40.042Z,101841.91
2023-04-27T11:23:07.580Z,101836.53
2023-04-27T11:25:34.168Z,101829.28
2023-04-27T11:28:00.671Z,101829.78
2023-04-27T11:30:27.130Z,101816.94
2023-04-27T11:32:54.318Z,101840.41
2023-04-27T11:35:31.965Z,101825.94
2023-04-27T11:37:59.510Z,101829.25
2023-04-27T11:40:27.225Z,101835.66
2023-04-27T11:42:58.657Z,101841.06
2023-04-27T11:45:28.049Z,101845.94
2023-04-27T11:47:54.754Z,101810.94
2023-04-27T11:50:24.610Z,101831.09
2023-04-27T11:52:51.638Z,101830.56
2023-04-27T11:55:20.871Z,101822.41
2023-04-27T11:57:47.497Z,101813.56
2023-04-27T12:00:15.413Z,101834.25
2023-04-27T12:02:43.624Z,101831.41
2023-04-27T12:05:12.466Z,101782.72
2023-04-27T12:07:39.613Z,101838.19
2023-04-27T12:10:07.771Z,101832.78
2023-04-27T12:12:34.328Z,101824.81
2023-04-27T12:15:01.338Z,101799.31
2023-04-27T12:17:27.873Z,101840.88
2023-04-27T12:19:54.385Z,101839.09
2023-04-27T12:22:21.060Z,101829.00
2023-04-27T12:24:47.520Z,101828.31
2023-04-27T12:27:13.952Z,101840.91
2023-04-27T12:29:40.439Z,101849.34
2023-04-27T12:32:06.857Z,101837.56
2023-04-27T12:34:33.403Z,101850.34
2023-04-27T12:36:59.883Z,101850.28
2023-04-27T12:39:26.741Z,101840.72
2023-04-27T12:41:54.060Z,101848.94
2023-04-27T12:44:21.551Z,101847.97
2023-04-27T12:46:48.442Z,101838.34
2023-04-27T12:49:15.395Z,101824.09
2023-04-27T12:51:42.085Z,101850.50
2023-04-27T12:54:10.638Z,101805.88
2023-04-27T12:56:37.105Z,101852.78
2023-04-27T12:59:04.138Z,101812.81
2023-04-27T13:01:31.498Z,101866.78
2023-04-27T13:04:03.478Z,101870.16
2023-04-27T13:06:32.018Z,101866.13
2023-04-27T13:08:59.813Z,101870.94
2023-04-27T13:11:27.076Z,101870.38
2023-04-27T13:13:54.885Z,101872.03
2023-04-27T13:16:22.764Z,101879.34
2023-04-27T13:18:51.929Z,101873.09
2023-04-27T13:21:18.530Z,101875.81
2023-04-27T13:23:44.916Z,101871.13
2023-04-27T13:26:11.731Z,101868.09
2023-04-27T13:28:38.205Z,101867.25
2023-04-27T13:31:05.543Z,101877.56
2023-04-27T13:33:44.994Z,101869.16
2023-04-27T13:36:12.858Z,101848.63
2023-04-27T13:38:39.940Z,101867.78
2023-04-27T13:41:06.732Z,101867.41
2023-04-27T13:43:33.328Z,101862.91
2023-04-27T13:46:01.777Z,101860.53
2023-04-27T13:48:29.544Z,101863.88
2023-04-27T13:50:56.258Z,101853.19
2023-04-27T13:53:25.795Z,101859.53
2023-04-27T13:55:53.997Z,101843.13
2023-04-27T13:58:20.816Z,101840.25
2023-04-27T14:00:48.349Z,101859.38
2023-04-27T14:03:16.498Z,101829.94
2023-04-27T14:05:44.475Z,101842.56
2023-04-27T14:08:11.706Z,101832.13
2023-04-27T14:10:38.690Z,101830.19
2023-04-27T14:13:05.925Z,101835.28
2023-04-27T14:15:36.873Z,101818.19
2023-04-27T14:18:05.494Z,101836.53
2023-04-27T14:20:32.143Z,101827.22
2023-04-27T14:22:59.276Z,101823.94
2023-04-27T14:25:25.907Z,101822.81
2023-04-27T14:27:52.286Z,101765.44
2023-04-27T14:30:18.838Z,101824.25
2023-04-27T14:32:45.374Z,101818.44
2023-04-27T14:35:11.880Z,101814.78
2023-04-27T14:37:38.347Z,101814.94
2023-04-27T14:40:06.850Z,101817.31
2023-04-27T14:42:33.460Z,101825.09
2023-04-27T14:44:59.907Z,101822.25
2023-04-27T14:47:26.811Z,101820.16
2023-04-27T14:49:53.364Z,101822.13
2023-04-27T14:52:19.787Z,101824.53
2023-04-27T14:54:46.316Z,101784.41
2023-04-27T14:57:12.858Z,101716.19
2023-04-27T14:59:39.378Z,101766.16
2023-04-27T15:02:05.861Z,101823.84
2023-04-27T15:04:35.217Z,101798.94
2023-04-27T15:07:01.807Z,101783.13
2023-04-27T15:09:28.319Z,101819.59
2023-04-27T15:11:54.725Z,101823.81
2023-04-27T15:14:21.168Z,101822.66
2023-04-27T15:16:47.560Z,101815.19
2023-04-27T15:19:14.159Z,101818.00
2023-04-27T15:21:40.752Z,101819.13
2023-04-27T15:24:07.230Z,101815.59
2023-04-27T15:26:33.768Z,101789.91
2023-04-27T15:29:00.800Z,101774.34
2023-04-27T15:31:27.276Z,101806.97
2023-04-27T15:33:54.635Z,101797.50
2023-04-27T15:36:22.904Z,101808.69
2023-04-27T15:38:50.417Z,101806.69
2023-04-27T15:41:16.931Z,101794.41
2023-04-27T15:43:43.341Z,101806.94
2023-04-27T15:46:10.223Z,101803.38
2023-04-27T15:48:36.710Z,101800.69
2023-04-27T15:51:03.915Z,101808.03
2023-04-27T15:53:30.470Z,101794.16
2023-04-27T15:55:56.943Z,101802.78
2023-04-27T15:58:23.366Z,101789.91
2023-04-27T16:00:49.807Z,101805.34
2023-04-27T16:03:16.390Z,101799.97
2023-04-27T16:05:43.035Z,101805.75
2023-04-27T16:08:09.452Z,101797.19
2023-04-27T16:10:35.996Z,101791.56
2023-04-27T16:13:02.470Z,101763.03
2023-04-27T16:15:28.874Z,101757.69
2023-04-27T16:17:55.613Z,101785.25
2023-04-27T16:20:22.617Z,101788.34
2023-04-27T16:22:49.051Z,101784.84
2023-04-27T16:25:15.933Z,101776.31
2023-04-27T16:27:43.432Z,101779.44
2023-04-27T16:30:10.047Z,101780.84
2023-04-27T16:32:37.632Z,101783.94
2023-04-27T16:35:04.391Z,101772.66
2023-04-27T16:37:30.928Z,101780.28
2023-04-27T16:40:01.201Z,101786.38
2023-04-27T16:42:27.882Z,101780.19
2023-04-27T16:44:54.725Z,101765.34
2023-04-27T16:47:21.331Z,101782.41
2023-04-27T16:49:47.929Z,101773.53
2023-04-27T16:52:14.474Z,101779.03
2023-04-27T16:54:40.915Z,101780.84
2023-04-27T16:57:07.777Z,101780.44
2023-04-27T16:59:34.465Z,101768.28
2023-04-27T17:02:12.516Z,101755.16
2023-04-27T17:04:47.781Z,101785.53
2023-04-27T17:07:14.885Z,101776.91
2023-04-27T17:09:41.717Z,101789.34
2023-04-27T17:12:10.875Z,101758.66
2023-04-27T17:14:38.436Z,101798.44
2023-04-27T17:17:05.975Z,101780.16
2023-04-27T17:19:32.399Z,101765.09
2023-04-27T17:21:58.884Z,101762.59
2023-04-27T17:24:25.513Z,101755.22
2023-04-27T17:26:52.143Z,101784.44
2023-04-27T17:29:18.616Z,101783.09
2023-04-27T17:31:45.110Z,101779.66
2023-04-27T17:34:11.948Z,101772.47
2023-04-27T17:36:38.573Z,101777.53
2023-04-27T17:39:05.020Z,101772.56
2023-04-27T17:41:32.825Z,101764.78
2023-04-27T17:44:00.160Z,101763.50
2023-04-27T17:46:26.832Z,101724.31
2023-04-27T17:48:53.351Z,101744.56
2023-04-27T17:51:19.838Z,101778.94
2023-04-27T17:53:46.372Z,101773.47
2023-04-27T17:56:12.813Z,101769.94
2023-04-27T17:58:39.302Z,101729.00
2023-04-27T18:01:09.194Z,101784.38
2023-04-27T18:03:36.377Z,101747.31
2023-04-27T18:06:02.966Z,101768.47
2023-04-27T18:08:29.650Z,101777.50
2023-04-27T18:10:56.192Z,101778.41
2023-04-27T18:13:22.765Z,101761.56
2023-04-27T18:15:49.518Z,101748.75
2023-04-27T18:18:21.170Z,101775.81
2023-04-27T18:20:48.509Z,101747.19
2023-04-27T18:23:15.186Z,101776.13
2023-04-27T18:25:41.720Z,101776.25
2023-04-27T18:28:09.323Z,101778.34
2023-04-27T18:30:35.776Z,101717.16
2023-04-27T18:33:02.331Z,101742.50
2023-04-27T18:35:28.783Z,101770.78
2023-04-27T18:37:55.266Z,101781.09
2023-04-27T18:40:22.556Z,101777.69
2023-04-27T18:42:49.959Z,101770.88
2023-04-27T18:45:16.476Z,101779.56
2023-04-27T18:47:43.620Z,101780.34
2023-04-27T18:50:11.112Z,101781.28
2023-04-27T18:52:37.553Z,101743.91
2023-04-27T18:55:04.980Z,101792.69
2023-04-27T18:57:31.838Z,101788.91
2023-04-27T18:59:58.494Z,101797.66
2023-04-27T19:02:27.372Z,101758.53
2023-04-27T19:05:11.568Z,101762.94
2023-04-27T19:07:39.784Z,101731.03
2023-04-27T19:10:07.245Z,101786.28
2023-04-27T19:12:33.767Z,101784.28
2023-04-27T19:15:02.265Z,101786.53
2023-04-27T19:17:29.151Z,101782.50
2023-04-27T19:19:56.050Z,101762.28
2023-04-27T19:22:22.809Z,101787.28
2023-04-27T19:24:49.220Z,101787.72
2023-04-27T19:27:16.107Z,101798.78
2023-04-27T19:29:54.183Z,101788.78
2023-04-27T19:32:21.555Z,101776.97
2023-04-27T19:34:48.619Z,101781.66
2023-04-27T19:37:15.091Z,101783.03
2023-04-27T19:39:41.770Z,101772.06
2023-04-27T19:42:08.332Z,101785.47
2023-04-27T19:44:34.960Z,101786.81
2023-04-27T19:47:01.354Z,101784.88
2023-04-27T19:49:32.628Z,101786.78
2023-04-27T19:51:59.925Z,101758.13
2023-04-27T19:54:27.045Z,101785.03
2023-04-27T19:56:54.309Z,101780.22
2023-04-27T19:59:21.038Z,101778.94
2023-04-27T20:01:48.299Z,101784.88
2023-04-27T20:04:15.472Z,101780.81
2023-04-27T20:06:43.281Z,101767.66
2023-04-27T20:09:10.025Z,101741.09
2023-04-27T20:11:36.477Z,101775.25
2023-04-27T20:14:02.965Z,101782.69
2023-04-27T20:16:29.706Z,101785.84
2023-04-27T20:18:56.127Z,101778.47
2023-04-27T20:21:22.673Z,101785.84
2023-04-27T20:23:49.339Z,101743.53
2023-04-27T20:26:15.912Z,101779.44
2023-04-27T20:28:42.965Z,101778.00
2023-04-27T20:31:09.600Z,101779.13
2023-04-27T20:33:36.247Z,101750.91
2023-04-27T20:36:16.208Z,101777.84
2023-04-27T20:38:44.196Z,101772.72
2023-04-27T20:41:12.294Z,101782.66
2023-04-27T20:43:41.563Z,101766.09
2023-04-27T20:46:10.093Z,101772.25
2023-04-27T20:48:36.593Z,101762.78
2023-04-27T20:51:03.255Z,101747.13
2023-04-27T20:53:30.070Z,101760.50
2023-04-27T20:55:56.949Z,101749.41
2023-04-27T20:58:23.753Z,101748.00
2023-04-27T21:00:50.727Z,101731.81
2023-04-27T21:03:17.440Z,101740.41
2023-04-27T21:05:44.060Z,101740.13
2023-04-27T21:08:10.571Z,101758.88
2023-04-27T21:10:37.243Z,101750.28
2023-04-27T21:13:04.081Z,101728.56
2023-04-27T21:15:30.946Z,101758.31
2023-04-27T21:17:57.458Z,101732.66
2023-04-27T21:20:24.072Z,101753.78
2023-04-27T21:22:50.503Z,101756.03
2023-04-27T21:25:16.941Z,101764.75
2023-04-27T21:27:43.820Z,101720.59
2023-04-27T21:30:10.987Z,101742.66
2023-04-27T21:32:37.714Z,101757.19
2023-04-27T21:35:04.454Z,101746.34
2023-04-27T21:37:31.256Z,101722.03
2023-04-27T21:39:57.836Z,101753.94
2023-04-27T21:42:24.375Z,101726.38
2023-04-27T21:44:50.956Z,101743.88
2023-04-27T21:47:17.421Z,101740.91
2023-04-27T21:49:43.891Z,101723.88
2023-04-27T21:52:11.074Z,101713.56
2023-04-27T21:54:37.553Z,101740.44
2023-04-27T21:57:04.167Z,101738.34
2023-04-27T21:59:30.741Z,101735.47
2023-04-27T22:01:59.267Z,101708.88
2023-04-27T22:04:26.068Z,101707.16
2023-04-27T22:06:52.719Z,101702.22
2023-04-27T22:09:19.268Z,101697.22
2023-04-27T22:11:46.506Z,101703.28
2023-04-27T22:14:13.044Z,101693.59
2023-04-27T22:16:39.636Z,101732.69
2023-04-27T22:19:06.120Z,101715.56
2023-04-27T22:21:33.205Z,101731.81
2023-04-27T22:24:00.246Z,101724.50
2023-04-27T22:26:26.802Z,101709.72
2023-04-27T22:28:53.636Z,101719.09
2023-04-27T22:31:20.385Z,101732.38
2023-04-27T22:33:46.899Z,101710.19
2023-04-27T22:36:13.353Z,101713.78
2023-04-27T22:38:39.863Z,101710.19
2023-04-27T22:41:06.312Z,101690.03
2023-04-27T22:43:32.726Z,101712.09
2023-04-27T22:45:59.145Z,101711.34
2023-04-27T22:48:25.945Z,101711.44
2023-04-27T22:50:52.448Z,101706.34
2023-04-27T22:53:18.922Z,101676.81
2023-04-27T22:55:45.362Z,101708.25
2023-04-27T22:58:11.955Z,101668.28
2023-04-27T23:00:38.472Z,101662.47
2023-04-27T23:03:05.194Z,101699.16
2023-04-27T23:05:32.418Z,101696.06
2023-04-27T23:07:59.829Z,101699.38
2023-04-27T23:10:26.767Z,101699.47
2023-04-27T23:12:54.707Z,101696.25
2023-04-27T23:15:23.953Z,101644.59
2023-04-27T23:17:50.426Z,101691.13
2023-04-27T23:22:51.406Z,101684.53
2023-04-27T23:25:17.921Z,101697.81
2023-04-27T23:27:44.333Z,101686.44
2023-04-27T23:30:11.729Z,101673.13
2023-04-27T23:32:38.296Z,101683.22
2023-04-27T23:35:05.699Z,101668.28
2023-04-27T23:37:32.170Z,101647.66
2023-04-27T23:39:58.778Z,101675.88
2023-04-27T23:42:25.283Z,101649.28
2023-04-27T23:44:52.993Z,101659.97
2023-04-27T23:47:19.468Z,101673.50
2023-04-27T23:49:45.977Z,101659.56
2023-04-27T23:52:12.578Z,101631.47
2023-04-27T23:54:39.157Z,101632.72
2023-04-27T23:57:06.527Z,101657.09
2023-04-27T23:59:35.975Z,101659.75
